Time,TemperatureF,DewpointF,PressureIn,WindDirection,WindDirectionDegrees,WindSpeedMPH,WindSpeedGustMPH,Humidity,HourlyPrecipIn,Conditions,Clouds,dailyrainin,SoftwareType,DateUTC
2013-09-23 00:03:00,55.0,49.0,29.90,SE,135,1.2,0.0,80,0.00,CLR,,0.00,WeatherDisplay:10.37,2013-09-23 07:03:00,
2013-09-23 00:08:00,54.9,48.8,29.89,South,180,1.2,0.0,80,0.00,CLR,,0.00,WeatherDisplay:10.37,2013-09-23 07:08:00,
2013-09-23 00:13:00,54.7,48.6,29.90,South,180,1.2,0.0,80,0.00,CLR,,0.00,WeatherDisplay:10.37,2013-09-23 07:13:00,
2013-09-23 00:18:00,54.3,48.3,29.90,South,180,1.2,0.0,80,0.00,CLR,,0.00,WeatherDisplay:10.37,2013-09-23 07:18:00,
2013-09-23 00:23:00,54.5,48.5,29.90,SW,225,1.2,0.0,80,0.00,CLR,,0.00,WeatherDisplay:10.37,2013-09-23 07:23:00,
2013-09-23 00:28:00,54.7,48.6,29.90,South,180,1.2,0.0,80,0.00,CLR,,0.00,WeatherDisplay:10.37,2013-09-23 07:28:00,
2013-09-23 00:33:00,54.7,48.6,29.90,SW,225,1.2,0.0,80,0.00,CLR,,0.00,WeatherDisplay:10.37,2013-09-23 07:33:00,
2013-09-23 00:38:00,54.7,48.6,29.89,SW,225,0.7,0.0,80,0.00,CLR,,0.00,WeatherDisplay:10.37,2013-09-23 07:38:00,
2013-09-23 00:43:00,54.9,48.8,29.90,West,270,1.2,0.0,80,0.00,CLR,,0.00,WeatherDisplay:10.37,2013-09-23 07:43:00,
2013-09-23 00:48:00,54.9,48.8,29.90,South,180,1.2,0.0,80,0.00,CLR,,0.00,WeatherDisplay:10.37,2013-09-23 07:48:00,
2013-09-23 00:53:00,54.5,48.5,29.90,SW,225,1.2,0.0,80,0.00,CLR,,0.00,WeatherDisplay:10.37,2013-09-23 07:53:00,
2013-09-23 00:58:00,54.5,48.5,29.90,SW,225,0.0,0.0,80,0.00,CLR,,0.00,WeatherDisplay:10.37,2013-09-23 07:58:00,
2013-09-23 01:03:00,54.5,48.5,29.90,South,180,1.2,0.0,80,0.00,CLR,,0.00,WeatherDisplay:10.37,2013-09-23 08:03:00,
2013-09-23 01:08:00,54.7,48.3,29.90,SW,225,4.6,0.0,79,0.00,CLR,,0.00,WeatherDisplay:10.37,2013-09-23 08:08:00,
2013-09-23 01:13:00,54.9,48.1,29.90,West,270,1.2,0.0,78,0.00,CLR,,0.00,WeatherDisplay:10.37,2013-09-23 08:13:00,
2013-09-23 01:18:00,55.0,48.6,29.90,West,270,2.3,2.3,79,0.00,CLR,,0.00,WeatherDisplay:10.37,2013-09-23 08:18:00,
2013-09-23 01:23:00,54.5,47.8,29.91,West,270,1.2,0.0,78,0.00,CLR,,0.00,WeatherDisplay:10.37,2013-09-23 08:23:00,
2013-09-23 01:28:00,54.3,47.6,29.90,NE,45,1.2,1.2,78,0.00,CLR,,0.00,WeatherDisplay:10.37,2013-09-23 08:28:00,
2013-09-23 01:33:00,54.0,47.6,29.91,North,0,1.2,0.0,79,0.00,CLR,,0.00,WeatherDisplay:10.37,2013-09-23 08:33:00,
2013-09-23 01:38:00,54.0,47.3,29.91,North,0,0.0,0.0,78,0.00,CLR,,0.00,WeatherDisplay:10.37,2013-09-23 08:38:00,
2013-09-23 01:43:00,53.6,46.9,29.90,South,180,0.0,0.0,78,0.00,CLR,,0.00,WeatherDisplay:10.37,2013-09-23 08:43:00,
2013-09-23 01:48:00,53.2,46.6,29.91,South,180,0.0,0.0,78,0.00,CLR,,0.00,WeatherDisplay:10.37,2013-09-23 08:48:00,
2013-09-23 01:53:00,53.2,46.6,29.91,NW,315,0.0,0.0,78,0.00,CLR,,0.00,WeatherDisplay:10.37,2013-09-23 08:53:00,
2013-09-23 01:58:00,53.2,46.6,29.91,NW,315,0.0,0.0,78,0.00,CLR,,0.00,WeatherDisplay:10.37,2013-09-23 08:58:00,
2013-09-23 02:03:00,53.4,46.4,29.91,West,270,1.2,0.0,77,0.00,CLR,,0.00,WeatherDisplay:10.37,2013-09-23 09:03:00,
2013-09-23 02:08:00,53.2,45.9,29.90,SE,135,2.3,0.0,76,0.00,CLR,,0.00,WeatherDisplay:10.37,2013-09-23 09:08:00,
2013-09-23 02:13:00,52.9,45.5,29.90,NE,45,1.2,0.0,76,0.00,CLR,,0.00,WeatherDisplay:10.37,2013-09-23 09:13:00,
2013-09-23 02:18:00,52.7,45.3,29.90,NE,45,1.2,0.0,76,0.00,CLR,,0.00,WeatherDisplay:10.37,2013-09-23 09:18:00,
2013-09-23 02:23:00,53.1,46.0,29.90,West,270,1.2,0.0,77,0.00,CLR,,0.00,WeatherDisplay:10.37,2013-09-23 09:23:00,
2013-09-23 02:28:00,52.9,45.5,29.90,SE,135,0.0,0.0,76,0.00,CLR,,0.00,WeatherDisplay:10.37,2013-09-23 09:28:00,
2013-09-23 02:33:00,52.9,45.5,29.89,North,0,2.3,0.0,76,0.00,CLR,,0.00,WeatherDisplay:10.37,2013-09-23 09:33:00,
2013-09-23 02:38:00,53.1,46.0,29.89,NW,315,2.2,2.2,77,0.00,CLR,,0.00,WeatherDisplay:10.37,2013-09-23 09:38:00,
2013-09-23 02:43:00,53.4,46.4,29.90,NW,315,2.3,2.3,77,0.00,CLR,,0.00,WeatherDisplay:10.37,2013-09-23 09:43:00,
2013-09-23 02:48:00,53.6,46.6,29.90,SSE,158,1.2,0.0,77,0.00,CLR,,0.00,WeatherDisplay:10.37,2013-09-23 09:48:00,
2013-09-23 02:53:00,53.1,46.0,29.91,NW,315,1.2,1.2,77,0.00,CLR,,0.00,WeatherDisplay:10.37,2013-09-23 09:53:00,
2013-09-23 02:58:00,53.2,46.2,29.91,North,0,1.2,0.0,77,0.00,CLR,,0.00,WeatherDisplay:10.37,2013-09-23 09:58:00,
2013-09-23 03:03:00,53.2,46.2,29.91,SW,225,0.0,0.0,77,0.00,CLR,,0.00,WeatherDisplay:10.37,2013-09-23 10:03:00,
2013-09-23 03:08:00,52.9,45.5,29.91,NW,315,1.2,0.0,76,0.00,CLR,,0.00,WeatherDisplay:10.37,2013-09-23 10:08:00,
2013-09-23 03:13:00,53.2,45.9,29.90,West,270,1.2,0.0,76,0.00,CLR,,0.00,WeatherDisplay:10.37,2013-09-23 10:13:00,
2013-09-23 03:18:00,53.4,46.0,29.91,West,270,1.2,1.2,76,0.00,CLR,,0.00,WeatherDisplay:10.37,2013-09-23 10:18:00,
2013-09-23 03:23:00,53.4,46.0,29.91,North,0,1.2,0.0,76,0.00,CLR,,0.00,WeatherDisplay:10.37,2013-09-23 10:23:00,
2013-09-23 03:28:00,53.4,46.0,29.90,North,0,1.2,1.2,76,0.00,CLR,,0.00,WeatherDisplay:10.37,2013-09-23 10:28:00,
2013-09-23 03:33:00,53.2,45.9,29.90,NE,45,1.2,1.2,76,0.00,CLR,,0.00,WeatherDisplay:10.37,2013-09-23 10:33:00,
2013-09-23 03:38:00,53.1,45.7,29.90,North,0,1.2,1.2,76,0.00,CLR,,0.00,WeatherDisplay:10.37,2013-09-23 10:38:00,
2013-09-23 03:43:00,53.1,45.7,29.91,West,270,1.2,0.0,76,0.00,CLR,,0.00,WeatherDisplay:10.37,2013-09-23 10:43:00,
2013-09-23 03:48:00,52.9,45.5,29.90,NE,45,1.2,1.2,76,0.00,CLR,,0.00,WeatherDisplay:10.37,2013-09-23 10:48:00,
2013-09-23 03:53:00,52.9,45.5,29.91,West,270,1.2,0.0,76,0.00,CLR,,0.00,WeatherDisplay:10.37,2013-09-23 10:53:00,
2013-09-23 03:58:00,53.1,45.7,29.91,NW,315,1.2,0.0,76,0.00,CLR,,0.00,WeatherDisplay:10.37,2013-09-23 10:58:00,
2013-09-23 04:04:00,53.4,46.0,29.91,NE,45,1.2,0.0,76,0.00,CLR,,0.00,WeatherDisplay:10.37,2013-09-23 11:04:00,
2013-09-23 04:09:00,53.4,46.0,29.91,West,270,0.0,0.0,76,0.00,CLR,,0.00,WeatherDisplay:10.37,2013-09-23 11:09:00,
2013-09-23 04:14:00,53.4,45.7,29.91,South,180,0.0,0.0,75,0.00,CLR,,0.00,WeatherDisplay:10.37,2013-09-23 11:14:00,
2013-09-23 04:19:00,53.4,45.7,29.91,West,270,1.2,0.0,75,0.00,CLR,,0.00,WeatherDisplay:10.37,2013-09-23 11:19:00,
2013-09-23 04:24:00,53.6,45.9,29.91,NE,45,1.2,0.0,75,0.00,CLR,,0.00,WeatherDisplay:10.37,2013-09-23 11:24:00,
2013-09-23 04:29:00,53.6,46.2,29.91,NE,45,1.2,0.0,76,0.00,CLR,,0.00,WeatherDisplay:10.37,2013-09-23 11:29:00,
2013-09-23 04:34:00,53.6,45.9,29.92,South,180,0.0,0.0,75,0.00,CLR,,0.00,WeatherDisplay:10.37,2013-09-23 11:34:00,
2013-09-23 04:39:00,53.4,45.7,29.92,NE,45,1.2,0.0,75,0.00,CLR,,0.00,WeatherDisplay:10.37,2013-09-23 11:39:00,
2013-09-23 04:44:00,53.4,45.7,29.91,North,0,1.2,1.2,75,0.00,CLR,,0.00,WeatherDisplay:10.37,2013-09-23 11:44:00,
2013-09-23 04:49:00,53.6,45.9,29.91,West,270,1.2,0.0,75,0.00,CLR,,0.00,WeatherDisplay:10.37,2013-09-23 11:49:00,
2013-09-23 04:54:00,53.8,46.0,29.91,NW,315,0.7,0.0,75,0.00,CLR,,0.00,WeatherDisplay:10.37,2013-09-23 11:54:00,
2013-09-23 04:59:00,53.8,46.0,29.91,NW,315,0.0,0.0,75,0.00,CLR,,0.00,WeatherDisplay:10.37,2013-09-23 11:59:00,
2013-09-23 05:04:00,53.8,46.0,29.91,West,270,1.2,0.0,75,0.00,CLR,,0.00,WeatherDisplay:10.37,2013-09-23 12:04:00,
2013-09-23 05:09:00,53.8,46.0,29.91,West,270,0.0,0.0,75,0.00,CLR,,0.00,WeatherDisplay:10.37,2013-09-23 12:09:00,
2013-09-23 05:14:00,53.6,45.5,29.91,West,270,1.2,0.0,74,0.00,CLR,,0.00,WeatherDisplay:10.37,2013-09-23 12:14:00,
2013-09-23 05:19:00,53.6,45.5,29.91,West,270,0.0,0.0,74,0.00,CLR,,0.00,WeatherDisplay:10.37,2013-09-23 12:19:00,
2013-09-23 05:24:00,53.6,45.5,29.92,NW,315,1.2,0.0,74,0.00,CLR,,0.00,WeatherDisplay:10.37,2013-09-23 12:24:00,
2013-09-23 05:29:00,53.6,45.5,29.92,West,270,1.2,0.0,74,0.00,CLR,,0.00,WeatherDisplay:10.37,2013-09-23 12:29:00,
2013-09-23 05:34:00,53.6,45.5,29.92,SW,225,1.2,0.0,74,0.00,CLR,,0.00,WeatherDisplay:10.37,2013-09-23 12:34:00,
2013-09-23 05:39:00,53.6,45.5,29.92,SW,225,0.0,0.0,74,0.00,CLR,,0.00,WeatherDisplay:10.37,2013-09-23 12:39:00,
2013-09-23 05:44:00,53.8,45.7,29.92,SW,225,0.0,0.0,74,0.00,CLR,,0.00,WeatherDisplay:10.37,2013-09-23 12:44:00,
2013-09-23 05:49:00,54.0,45.9,29.91,NW,315,1.2,0.0,74,0.00,CLR,,0.00,WeatherDisplay:10.37,2013-09-23 12:49:00,
2013-09-23 05:54:00,54.1,46.0,29.92,North,0,1.2,0.0,74,0.00,CLR,,0.00,WeatherDisplay:10.37,2013-09-23 12:54:00,
2013-09-23 05:59:00,54.1,46.0,29.92,North,0,1.2,0.0,74,0.00,CLR,,0.00,WeatherDisplay:10.37,2013-09-23 12:59:00,
2013-09-23 06:04:00,54.5,46.4,29.92,SE,135,1.2,0.0,74,0.00,CLR,,0.00,WeatherDisplay:10.37,2013-09-23 13:04:00,
2013-09-23 06:09:00,54.1,45.7,29.92,SE,135,1.2,0.0,73,0.00,CLR,,0.00,WeatherDisplay:10.37,2013-09-23 13:09:00,
2013-09-23 06:14:00,54.1,45.7,29.92,SE,135,1.2,0.0,73,0.00,CLR,,0.00,WeatherDisplay:10.37,2013-09-23 13:14:00,
2013-09-23 06:19:00,54.1,45.7,29.92,West,270,1.2,0.0,73,0.00,CLR,,0.00,WeatherDisplay:10.37,2013-09-23 13:19:00,
2013-09-23 06:24:00,54.3,45.8,29.93,NW,315,1.2,0.0,73,0.00,CLR,,0.00,WeatherDisplay:10.37,2013-09-23 13:24:00,
2013-09-23 06:29:00,54.5,46.0,29.93,West,270,2.3,0.0,73,0.00,CLR,,0.00,WeatherDisplay:10.37,2013-09-23 13:29:00,
2013-09-23 06:34:00,54.7,46.2,29.92,SE,135,2.3,2.3,73,0.00,CLR,,0.00,WeatherDisplay:10.37,2013-09-23 13:34:00,
2013-09-23 06:39:00,54.7,45.5,29.93,NW,315,0.0,0.0,71,0.00,CLR,,0.00,WeatherDisplay:10.37,2013-09-23 13:39:00,
2013-09-23 06:44:00,54.7,45.5,29.93,North,0,1.2,0.0,71,0.00,CLR,,0.00,WeatherDisplay:10.37,2013-09-23 13:44:00,
2013-09-23 06:49:00,54.9,45.3,29.93,NE,45,1.2,0.0,70,0.00,CLR,,0.00,WeatherDisplay:10.37,2013-09-23 13:49:00,
2013-09-23 06:54:00,54.9,45.6,29.93,SE,135,1.6,1.6,71,0.00,CLR,,0.00,WeatherDisplay:10.37,2013-09-23 13:54:00,
2013-09-23 06:59:00,54.9,45.3,29.93,South,180,1.2,0.0,70,0.00,CLR,,0.00,WeatherDisplay:10.37,2013-09-23 13:59:00,
2013-09-23 07:04:00,54.9,45.3,29.92,SE,135,1.2,0.0,70,0.00,CLR,,0.00,WeatherDisplay:10.37,2013-09-23 14:04:00,
2013-09-23 07:09:00,55.0,45.4,29.92,NW,315,1.2,0.0,70,0.00,CLR,,0.00,WeatherDisplay:10.37,2013-09-23 14:09:00,
2013-09-23 07:14:00,55.0,45.1,29.93,West,270,2.3,0.0,69,0.00,CLR,,0.00,WeatherDisplay:10.37,2013-09-23 14:14:00,
2013-09-23 07:19:00,55.0,44.7,29.92,North,0,1.2,0.0,68,0.00,CLR,,0.00,WeatherDisplay:10.37,2013-09-23 14:19:00,
2013-09-23 07:24:00,55.2,44.1,29.93,North,0,0.0,0.0,66,0.00,CLR,,0.00,WeatherDisplay:10.37,2013-09-23 14:24:00,
2013-09-23 07:30:00,55.2,44.1,29.93,SE,135,0.0,0.0,66,0.00,CLR,,0.00,WeatherDisplay:10.37,2013-09-23 14:30:00,
2013-09-23 07:35:00,55.6,44.8,29.92,SE,135,5.8,5.8,67,0.00,CLR,,0.00,WeatherDisplay:10.37,2013-09-23 14:35:00,
2013-09-23 07:40:00,55.9,42.7,29.92,South,180,8.1,8.1,61,0.00,CLR,,0.00,WeatherDisplay:10.37,2013-09-23 14:40:00,
2013-09-23 07:45:00,56.3,43.0,29.93,South,180,6.9,6.9,61,0.00,CLR,,0.00,WeatherDisplay:10.37,2013-09-23 14:45:00,
2013-09-23 07:50:00,56.3,43.0,29.93,South,180,3.5,3.5,61,0.00,CLR,,0.00,WeatherDisplay:10.37,2013-09-23 14:50:00,
2013-09-23 07:55:00,56.5,43.6,29.93,South,180,2.3,2.3,62,0.00,CLR,,0.00,WeatherDisplay:10.37,2013-09-23 14:55:00,
2013-09-23 08:00:00,56.5,43.6,29.93,East,90,0.0,0.0,62,0.00,CLR,,0.00,WeatherDisplay:10.37,2013-09-23 15:00:00,
2013-09-23 08:05:00,56.7,43.8,29.93,NW,315,1.2,0.0,62,0.00,CLR,,0.00,WeatherDisplay:10.37,2013-09-23 15:05:00,
2013-09-23 08:10:00,56.8,44.0,29.93,NE,45,1.2,1.2,62,0.00,CLR,,0.00,WeatherDisplay:10.37,2013-09-23 15:10:00,
2013-09-23 08:15:00,56.8,44.0,29.93,North,0,0.0,0.0,62,0.00,CLR,,0.00,WeatherDisplay:10.37,2013-09-23 15:15:00,
2013-09-23 08:20:00,57.2,44.3,29.93,South,180,1.2,1.2,62,0.00,CLR,,0.00,WeatherDisplay:10.37,2013-09-23 15:20:00,
2013-09-23 08:25:00,57.6,44.6,29.94,South,180,2.3,2.3,62,0.00,CLR,,0.00,WeatherDisplay:10.37,2013-09-23 15:25:00,
2013-09-23 08:30:00,57.6,44.6,29.94,SSE,158,4.6,4.6,62,0.00,CLR,,0.00,WeatherDisplay:10.37,2013-09-23 15:30:00,
2013-09-23 08:35:00,57.7,44.8,29.93,SE,135,5.8,5.8,62,0.00,CLR,,0.00,WeatherDisplay:10.37,2013-09-23 15:35:00,
2013-09-23 08:40:00,58.1,45.1,29.93,South,180,5.8,5.8,62,0.00,CLR,,0.00,WeatherDisplay:10.37,2013-09-23 15:40:00,
2013-09-23 08:45:00,58.1,43.4,29.94,SE,135,5.8,5.8,58,0.00,CLR,,0.00,WeatherDisplay:10.37,2013-09-23 15:45:00,
2013-09-23 08:50:00,58.1,42.0,29.94,South,180,5.8,5.8,55,0.00,CLR,,0.00,WeatherDisplay:10.37,2013-09-23 15:50:00,
2013-09-23 08:55:00,58.3,40.7,29.94,South,180,5.8,5.8,52,0.00,CLR,,0.00,WeatherDisplay:10.37,2013-09-23 15:55:00,
2013-09-23 09:00:00,58.5,38.8,29.94,South,180,6.9,6.9,48,0.00,CLR,,0.00,WeatherDisplay:10.37,2013-09-23 16:00:00,
2013-09-23 09:05:00,58.8,37.5,29.95,South,180,8.1,8.1,45,0.00,CLR,,0.00,WeatherDisplay:10.37,2013-09-23 16:05:00,
2013-09-23 09:10:00,59.0,36.5,29.95,South,180,5.8,5.8,43,0.00,CLR,,0.00,WeatherDisplay:10.37,2013-09-23 16:10:00,
2013-09-23 09:15:00,58.8,33.9,29.95,South,180,8.1,8.1,39,0.00,CLR,,0.00,WeatherDisplay:10.37,2013-09-23 16:15:00,
2013-09-23 09:20:00,59.0,32.7,29.95,South,180,5.8,5.8,37,0.00,CLR,,0.00,WeatherDisplay:10.37,2013-09-23 16:20:00,
2013-09-23 09:25:00,59.0,30.6,29.96,South,180,8.1,8.1,34,0.00,CLR,,0.00,WeatherDisplay:10.37,2013-09-23 16:25:00,
2013-09-23 09:30:00,59.2,30.1,29.96,SE,135,5.8,5.8,33,0.00,CLR,,0.00,WeatherDisplay:10.37,2013-09-23 16:30:00,
2013-09-23 09:35:00,59.4,30.2,29.96,South,180,5.8,5.8,33,0.00,CLR,,0.00,WeatherDisplay:10.37,2013-09-23 16:35:00,
2013-09-23 09:40:00,59.7,27.4,29.96,SE,135,6.9,6.9,29,0.00,CLR,,0.00,WeatherDisplay:10.37,2013-09-23 16:40:00,
2013-09-23 09:45:00,59.9,26.7,29.97,SE,135,5.8,5.8,28,0.00,CLR,,0.00,WeatherDisplay:10.37,2013-09-23 16:45:00,
2013-09-23 09:50:00,59.7,21.8,29.97,South,180,8.1,8.1,23,0.00,CLR,,0.00,WeatherDisplay:10.37,2013-09-23 16:50:00,
2013-09-23 09:55:00,59.7,22.8,29.97,South,180,6.9,6.9,24,0.00,CLR,,0.00,WeatherDisplay:10.37,2013-09-23 16:55:00,
2013-09-23 10:00:00,60.1,23.1,29.96,SE,135,6.9,6.9,24,0.00,CLR,,0.00,WeatherDisplay:10.37,2013-09-23 17:00:00,
2013-09-23 10:05:00,60.8,23.7,29.97,South,180,5.8,5.8,24,0.00,CLR,,0.00,WeatherDisplay:10.37,2013-09-23 17:05:00,
2013-09-23 10:10:00,61.2,17.3,29.97,SE,135,8.1,8.1,18,0.00,CLR,,0.00,WeatherDisplay:10.37,2013-09-23 17:10:00,
2013-09-23 10:15:00,61.2,15.9,29.97,South,180,6.9,6.9,17,0.00,CLR,,0.00,WeatherDisplay:10.37,2013-09-23 17:15:00,
2013-09-23 10:20:00,61.3,21.0,29.97,South,180,4.6,4.6,21,0.00,CLR,,0.00,WeatherDisplay:10.37,2013-09-23 17:20:00,
2013-09-23 10:25:00,61.5,10.1,29.97,South,180,10.4,10.4,13,0.00,CLR,,0.00,WeatherDisplay:10.37,2013-09-23 17:25:00,
2013-09-23 10:30:00,61.3,13.2,29.97,SE,135,5.8,5.8,15,0.00,CLR,,0.00,WeatherDisplay:10.37,2013-09-23 17:30:00,
2013-09-23 10:35:00,61.2,15.9,29.97,South,180,5.8,5.8,17,0.00,CLR,,0.00,WeatherDisplay:10.37,2013-09-23 17:35:00,
2013-09-23 10:40:00,61.3,13.2,29.97,SE,135,5.8,5.8,15,0.00,CLR,,0.00,WeatherDisplay:10.37,2013-09-23 17:40:00,
2013-09-23 10:45:00,61.5,18.8,29.97,SE,135,3.5,3.5,19,0.00,CLR,,0.00,WeatherDisplay:10.37,2013-09-23 17:45:00,
2013-09-23 10:50:00,61.9,16.5,29.97,South,180,4.6,4.6,17,0.00,CLR,,0.00,WeatherDisplay:10.37,2013-09-23 17:50:00,
2013-09-23 10:55:00,61.9,12.1,29.97,South,180,3.5,3.5,14,0.00,CLR,,0.00,WeatherDisplay:10.37,2013-09-23 17:55:00,
2013-09-23 11:00:00,61.9,13.7,29.98,SW,225,5.8,5.8,15,0.00,CLR,,0.00,WeatherDisplay:10.37,2013-09-23 18:00:00,
2013-09-23 11:05:00,61.7,4.5,29.98,South,180,10.4,10.4,10,0.00,CLR,,0.00,WeatherDisplay:10.37,2013-09-23 18:05:00,
2013-09-23 11:10:00,61.7,10.3,29.98,South,180,8.1,8.1,13,0.00,CLR,,0.00,WeatherDisplay:10.37,2013-09-23 18:10:00,
2013-09-23 11:15:00,61.5,10.1,29.98,South,180,4.6,4.6,13,0.00,CLR,,0.00,WeatherDisplay:10.37,2013-09-23 18:15:00,
2013-09-23 11:20:00,61.5,6.4,29.98,SE,135,3.5,3.5,11,0.00,CLR,,0.00,WeatherDisplay:10.37,2013-09-23 18:20:00,
2013-09-23 11:25:00,61.9,10.4,29.99,SW,225,5.8,0.0,13,0.00,CLR,,0.00,WeatherDisplay:10.37,2013-09-23 18:25:00,
2013-09-23 11:30:00,62.2,12.4,29.99,East,90,3.5,3.5,14,0.00,CLR,,0.00,WeatherDisplay:10.37,2013-09-23 18:30:00,
2013-09-23 11:35:00,62.8,11.1,29.98,East,90,2.3,2.3,13,0.00,CLR,,0.00,WeatherDisplay:10.37,2013-09-23 18:35:00,
2013-09-23 11:40:00,63.9,13.7,29.98,SE,135,1.2,0.0,14,0.00,CLR,,0.00,WeatherDisplay:10.37,2013-09-23 18:40:00,
2013-09-23 11:45:00,65.3,7.2,29.99,South,180,1.2,1.2,10,0.00,CLR,,0.00,WeatherDisplay:10.37,2013-09-23 18:45:00,
2013-09-23 11:51:00,65.8,7.7,29.99,South,180,3.5,3.5,10,0.00,CLR,,0.00,WeatherDisplay:10.37,2013-09-23 18:51:00,
2013-09-23 11:56:00,66.0,7.8,29.99,SE,135,5.8,5.8,10,0.00,CLR,,0.00,WeatherDisplay:10.37,2013-09-23 18:56:00,
2013-09-23 12:01:00,65.7,7.5,29.99,South,180,4.6,4.6,10,0.00,CLR,,0.00,WeatherDisplay:10.37,2013-09-23 19:01:00,
2013-09-23 12:06:00,65.5,7.4,29.99,SE,135,5.8,5.8,10,0.00,CLR,,0.00,WeatherDisplay:10.37,2013-09-23 19:06:00,
2013-09-23 12:11:00,65.3,7.2,29.98,South,180,8.1,8.1,10,0.00,CLR,,0.00,WeatherDisplay:10.37,2013-09-23 19:11:00,
2013-09-23 12:16:00,64.8,6.8,29.98,SW,225,8.1,8.1,10,0.00,CLR,,0.00,WeatherDisplay:10.37,2013-09-23 19:16:00,
2013-09-23 12:21:00,64.9,7.0,29.98,SSW,202,8.1,8.1,10,0.00,CLR,,0.00,WeatherDisplay:10.37,2013-09-23 19:21:00,
2013-09-23 12:26:00,65.3,7.2,29.99,South,180,10.4,10.4,10,0.00,CLR,,0.00,WeatherDisplay:10.37,2013-09-23 19:26:00,
2013-09-23 12:31:00,64.9,7.0,29.99,South,180,10.4,10.4,10,0.00,CLR,,0.00,WeatherDisplay:10.37,2013-09-23 19:31:00,
2013-09-23 12:36:00,64.4,6.6,29.99,South,180,12.7,12.7,10,0.00,CLR,,0.00,WeatherDisplay:10.37,2013-09-23 19:36:00,
2013-09-23 12:41:00,64.0,6.3,29.99,South,180,10.4,10.4,10,0.00,CLR,,0.00,WeatherDisplay:10.37,2013-09-23 19:41:00,
2013-09-23 12:46:00,64.4,6.6,29.99,South,180,8.1,8.1,10,0.00,CLR,,0.00,WeatherDisplay:10.37,2013-09-23 19:46:00,
2013-09-23 12:51:00,64.8,6.8,29.98,SE,135,8.1,8.1,10,0.00,CLR,,0.00,WeatherDisplay:10.37,2013-09-23 19:51:00,
2013-09-23 12:56:00,64.9,7.0,29.99,South,180,8.1,8.1,10,0.00,CLR,,0.00,WeatherDisplay:10.37,2013-09-23 19:56:00,
2013-09-23 13:01:00,64.8,6.8,29.99,South,180,6.9,6.9,10,0.00,CLR,,0.00,WeatherDisplay:10.37,2013-09-23 20:01:00,
2013-09-23 13:06:00,64.4,6.6,29.99,South,180,9.8,9.8,10,0.00,CLR,,0.00,WeatherDisplay:10.37,2013-09-23 20:06:00,
2013-09-23 13:11:00,64.2,6.4,29.99,South,180,10.4,10.4,10,0.00,CLR,,0.00,WeatherDisplay:10.37,2013-09-23 20:11:00,
2013-09-23 13:16:00,64.6,6.7,29.99,SW,225,5.8,5.8,10,0.00,CLR,,0.00,WeatherDisplay:10.37,2013-09-23 20:16:00,
2013-09-23 13:21:00,65.3,7.2,29.99,South,180,5.8,5.8,10,0.00,CLR,,0.00,WeatherDisplay:10.37,2013-09-23 20:21:00,
2013-09-23 13:26:00,65.7,7.5,29.99,South,180,6.9,6.9,10,0.00,CLR,,0.00,WeatherDisplay:10.37,2013-09-23 20:26:00,
2013-09-23 13:31:00,66.2,7.9,29.99,SW,225,6.9,6.9,10,0.00,CLR,,0.00,WeatherDisplay:10.37,2013-09-23 20:31:00,
2013-09-23 13:36:00,66.4,8.1,29.99,SE,135,8.1,8.1,10,0.00,CLR,,0.00,WeatherDisplay:10.37,2013-09-23 20:36:00,
2013-09-23 13:41:00,67.1,8.6,29.98,SSW,202,5.8,5.8,10,0.00,CLR,,0.00,WeatherDisplay:10.37,2013-09-23 20:41:00,
2013-09-23 13:46:00,67.5,8.9,29.98,SW,225,6.9,6.9,10,0.00,CLR,,0.00,WeatherDisplay:10.37,2013-09-23 20:46:00,
2013-09-23 13:51:00,68.9,10.0,29.98,SW,225,3.5,3.5,10,0.00,CLR,,0.00,WeatherDisplay:10.37,2013-09-23 20:51:00,
2013-09-23 13:56:00,69.6,10.6,29.98,North,0,3.5,3.8,10,0.00,CLR,,0.00,WeatherDisplay:10.37,2013-09-23 20:56:00,
2013-09-23 14:01:00,68.9,10.0,29.98,SW,225,3.5,3.5,10,0.00,CLR,,0.00,WeatherDisplay:10.37,2013-09-23 21:01:00,
2013-09-23 14:06:00,68.5,9.7,29.97,South,180,3.5,3.5,10,0.00,CLR,,0.00,WeatherDisplay:10.37,2013-09-23 21:06:00,
2013-09-23 14:11:00,68.5,9.7,29.98,SW,225,6.9,6.9,10,0.00,CLR,,0.00,WeatherDisplay:10.37,2013-09-23 21:11:00,
2013-09-23 14:16:00,68.4,9.6,29.97,SSW,202,15.0,15.0,10,0.00,CLR,,0.00,WeatherDisplay:10.37,2013-09-23 21:16:00,
2013-09-23 14:21:00,68.4,9.6,29.98,SW,225,13.0,13.0,10,0.00,CLR,,0.00,WeatherDisplay:10.37,2013-09-23 21:21:00,
2013-09-23 14:26:00,68.5,9.7,29.98,West,270,16.1,16.1,10,0.00,CLR,,0.00,WeatherDisplay:10.37,2013-09-23 21:26:00,
2013-09-23 14:31:00,68.7,9.9,29.98,SSW,202,12.7,12.7,10,0.00,CLR,,0.00,WeatherDisplay:10.37,2013-09-23 21:31:00,
2013-09-23 14:36:00,68.7,9.9,29.97,South,180,11.5,11.5,10,0.00,CLR,,0.00,WeatherDisplay:10.37,2013-09-23 21:36:00,
2013-09-23 14:41:00,69.8,10.7,29.98,SW,225,6.9,6.9,10,0.00,CLR,,0.00,WeatherDisplay:10.37,2013-09-23 21:41:00,
2013-09-23 14:47:00,70.0,10.8,29.98,North,0,6.9,6.9,10,0.00,CLR,,0.00,WeatherDisplay:10.37,2013-09-23 21:47:00,
2013-09-23 14:52:00,70.5,11.2,29.98,SW,225,12.7,12.7,10,0.00,CLR,,0.00,WeatherDisplay:10.37,2013-09-23 21:52:00,
2013-09-23 14:57:00,69.3,10.3,29.97,SW,225,11.5,11.5,10,0.00,CLR,,0.00,WeatherDisplay:10.37,2013-09-23 21:57:00,
2013-09-23 15:02:00,68.9,10.0,29.97,West,270,8.1,8.1,10,0.00,CLR,,0.00,WeatherDisplay:10.37,2013-09-23 22:02:00,
2013-09-23 15:07:00,70.2,11.0,29.97,SW,225,9.2,9.2,10,0.00,CLR,,0.00,WeatherDisplay:10.37,2013-09-23 22:07:00,
2013-09-23 15:12:00,71.2,11.8,29.97,South,180,12.7,12.7,10,0.00,CLR,,0.00,WeatherDisplay:10.37,2013-09-23 22:12:00,
2013-09-23 15:17:00,70.3,11.1,29.97,SW,225,15.0,15.0,10,0.00,CLR,,0.00,WeatherDisplay:10.37,2013-09-23 22:17:00,
2013-09-23 15:22:00,70.2,11.0,29.97,West,270,5.8,5.8,10,0.00,CLR,,0.00,WeatherDisplay:10.37,2013-09-23 22:22:00,
2013-09-23 15:27:00,69.8,10.7,29.97,SW,225,10.4,10.4,10,0.00,CLR,,0.00,WeatherDisplay:10.37,2013-09-23 22:27:00,
2013-09-23 15:32:00,69.4,10.4,29.97,SW,225,9.2,9.2,10,0.00,CLR,,0.00,WeatherDisplay:10.37,2013-09-23 22:32:00,
2013-09-23 15:37:00,69.3,10.3,29.97,NW,315,13.8,13.8,10,0.00,CLR,,0.00,WeatherDisplay:10.37,2013-09-23 22:37:00,
2013-09-23 15:42:00,69.3,10.3,29.98,SW,225,9.2,9.2,10,0.00,CLR,,0.00,WeatherDisplay:10.37,2013-09-23 22:42:00,
2013-09-23 15:47:00,68.7,9.9,29.98,SW,225,12.7,12.7,10,0.00,CLR,,0.00,WeatherDisplay:10.37,2013-09-23 22:47:00,
2013-09-23 15:52:00,68.4,9.6,29.97,SW,225,15.0,15.0,10,0.00,CLR,,0.00,WeatherDisplay:10.37,2013-09-23 22:52:00,
2013-09-23 15:57:00,67.6,9.0,29.97,West,270,12.7,12.7,10,0.00,CLR,,0.00,WeatherDisplay:10.37,2013-09-23 22:57:00,
2013-09-23 16:02:00,67.6,9.0,29.98,SW,225,8.1,8.1,10,0.00,CLR,,0.00,WeatherDisplay:10.37,2013-09-23 23:02:00,
2013-09-23 16:07:00,67.3,8.8,29.97,SW,225,12.7,12.7,10,0.00,CLR,,0.00,WeatherDisplay:10.37,2013-09-23 23:07:00,
2013-09-23 16:12:00,66.9,8.5,29.98,SW,225,11.4,11.4,10,0.00,CLR,,0.00,WeatherDisplay:10.37,2013-09-23 23:12:00,
2013-09-23 16:17:00,66.7,8.3,29.97,SSW,202,12.7,12.7,10,0.00,CLR,,0.00,WeatherDisplay:10.37,2013-09-23 23:17:00,
2013-09-23 16:22:00,66.7,8.3,29.97,SW,225,10.4,10.4,10,0.00,CLR,,0.00,WeatherDisplay:10.37,2013-09-23 23:22:00,
2013-09-23 16:27:00,66.4,8.1,29.98,SW,225,10.4,10.4,10,0.00,CLR,,0.00,WeatherDisplay:10.37,2013-09-23 23:27:00,
2013-09-23 16:32:00,65.8,7.7,29.98,SW,225,13.7,13.7,10,0.00,CLR,,0.00,WeatherDisplay:10.37,2013-09-23 23:32:00,
2013-09-23 16:37:00,65.8,7.7,29.98,SW,225,8.1,8.1,10,0.00,CLR,,0.00,WeatherDisplay:10.37,2013-09-23 23:37:00,
2013-09-23 16:42:00,65.8,7.7,29.98,West,270,8.1,8.1,10,0.00,CLR,,0.00,WeatherDisplay:10.37,2013-09-23 23:42:00,
2013-09-23 16:47:00,65.5,7.4,29.98,SW,225,10.4,10.4,10,0.00,CLR,,0.00,WeatherDisplay:10.37,2013-09-23 23:47:00,
2013-09-23 16:52:00,65.3,7.2,29.98,SW,225,10.4,10.4,10,0.00,CLR,,0.00,WeatherDisplay:10.37,2013-09-23 23:52:00,
2013-09-23 16:57:00,64.9,7.0,29.98,SW,225,13.0,13.0,10,0.00,CLR,,0.00,WeatherDisplay:10.37,2013-09-23 23:57:00,
2013-09-23 17:02:00,64.6,6.7,29.98,West,270,15.0,15.0,10,0.00,CLR,,0.00,WeatherDisplay:10.37,2013-09-24 00:02:00,
2013-09-23 17:07:00,64.8,6.8,29.98,South,180,3.5,3.5,10,0.00,CLR,,0.00,WeatherDisplay:10.37,2013-09-24 00:07:00,
2013-09-23 17:12:00,64.8,6.8,29.98,SW,225,2.3,0.0,10,0.00,CLR,,0.00,WeatherDisplay:10.37,2013-09-24 00:12:00,
2013-09-23 17:17:00,64.6,6.7,29.98,SW,225,2.3,2.3,10,0.00,CLR,,0.00,WeatherDisplay:10.37,2013-09-24 00:17:00,
2013-09-23 17:22:00,64.2,6.4,29.98,SW,225,3.5,5.4,10,0.00,CLR,,0.00,WeatherDisplay:10.37,2013-09-24 00:22:00,
2013-09-23 17:27:00,64.0,6.3,29.98,SW,225,9.2,9.2,10,0.00,CLR,,0.00,WeatherDisplay:10.37,2013-09-24 00:27:00,
2013-09-23 17:32:00,63.7,6.0,29.98,SW,225,5.8,5.8,10,0.00,CLR,,0.00,WeatherDisplay:10.37,2013-09-24 00:32:00,
2013-09-23 17:37:00,63.5,5.9,29.98,SW,225,11.5,11.5,10,0.00,CLR,,0.00,WeatherDisplay:10.37,2013-09-24 00:37:00,
2013-09-23 17:42:00,63.1,5.6,29.98,SW,225,9.2,9.2,10,0.00,CLR,,0.00,WeatherDisplay:10.37,2013-09-24 00:42:00,
2013-09-23 17:48:00,63.1,5.6,29.98,SW,225,10.4,10.4,10,0.00,CLR,,0.00,WeatherDisplay:10.37,2013-09-24 00:48:00,
2013-09-23 17:53:00,63.0,5.4,29.99,SW,225,12.7,12.7,10,0.00,CLR,,0.00,WeatherDisplay:10.37,2013-09-24 00:53:00,
2013-09-23 17:58:00,62.8,5.3,29.98,SW,225,7.6,7.6,10,0.00,CLR,,0.00,WeatherDisplay:10.37,2013-09-24 00:58:00,
2013-09-23 18:03:00,62.6,5.2,29.98,SW,225,5.8,5.8,10,0.00,CLR,,0.00,WeatherDisplay:10.37,2013-09-24 01:03:00,
2013-09-23 18:08:00,62.6,5.2,29.98,SSW,202,3.5,3.5,10,0.00,CLR,,0.00,WeatherDisplay:10.37,2013-09-24 01:08:00,
2013-09-23 18:13:00,62.4,7.1,29.98,SW,225,2.3,2.3,11,0.00,CLR,,0.00,WeatherDisplay:10.37,2013-09-24 01:13:00,
2013-09-23 18:18:00,62.4,9.1,29.98,SW,225,4.6,0.0,12,0.00,CLR,,0.00,WeatherDisplay:10.37,2013-09-24 01:18:00,
2013-09-23 18:23:00,62.2,13.9,29.98,SW,225,4.5,4.5,15,0.00,CLR,,0.00,WeatherDisplay:10.37,2013-09-24 01:23:00,
2013-09-23 18:28:00,62.1,16.7,29.98,SW,225,6.9,6.9,17,0.00,CLR,,0.00,WeatherDisplay:10.37,2013-09-24 01:28:00,
2013-09-23 18:33:00,61.9,20.3,29.98,SW,225,3.5,3.5,20,0.00,CLR,,0.00,WeatherDisplay:10.37,2013-09-24 01:33:00,
2013-09-23 18:38:00,61.7,21.3,29.98,SW,225,5.8,5.8,21,0.00,CLR,,0.00,WeatherDisplay:10.37,2013-09-24 01:38:00,
2013-09-23 18:43:00,61.5,23.3,29.98,SW,225,3.5,3.5,23,0.00,CLR,,0.00,WeatherDisplay:10.37,2013-09-24 01:43:00,
2013-09-23 18:48:00,61.3,25.2,29.98,SW,225,5.8,5.8,25,0.00,CLR,,0.00,WeatherDisplay:10.37,2013-09-24 01:48:00,
2013-09-23 18:53:00,61.3,27.9,29.98,South,180,2.3,2.3,28,0.00,CLR,,0.00,WeatherDisplay:10.37,2013-09-24 01:53:00,
2013-09-23 18:58:00,61.2,28.6,29.98,SW,225,3.5,3.5,29,0.00,CLR,,0.00,WeatherDisplay:10.37,2013-09-24 01:58:00,
2013-09-23 19:03:00,61.2,30.3,29.97,SW,225,4.6,4.6,31,0.00,CLR,,0.00,WeatherDisplay:10.37,2013-09-24 02:03:00,
2013-09-23 19:08:00,61.0,31.6,29.97,SW,225,5.8,5.8,33,0.00,CLR,,0.00,WeatherDisplay:10.37,2013-09-24 02:08:00,
2013-09-23 19:13:00,60.8,32.2,29.98,SW,225,1.2,1.2,34,0.00,CLR,,0.00,WeatherDisplay:10.37,2013-09-24 02:13:00,
2013-09-23 19:18:00,60.8,33.0,29.97,SW,225,2.3,2.3,35,0.00,CLR,,0.00,WeatherDisplay:10.37,2013-09-24 02:18:00,
2013-09-23 19:23:00,60.6,32.8,29.98,SW,225,2.3,2.3,35,0.00,CLR,,0.00,WeatherDisplay:10.37,2013-09-24 02:23:00,
2013-09-23 19:28:00,60.4,33.3,29.97,SW,225,1.2,0.0,36,0.00,CLR,,0.00,WeatherDisplay:10.37,2013-09-24 02:28:00,
2013-09-23 19:33:00,60.4,33.3,29.97,SE,135,0.0,0.0,36,0.00,CLR,,0.00,WeatherDisplay:10.37,2013-09-24 02:33:00,
2013-09-23 19:38:00,60.4,33.3,29.98,South,180,1.2,0.0,36,0.00,CLR,,0.00,WeatherDisplay:10.37,2013-09-24 02:38:00,
2013-09-23 19:43:00,60.3,33.2,29.98,East,90,1.2,0.0,36,0.00,CLR,,0.00,WeatherDisplay:10.37,2013-09-24 02:43:00,
2013-09-23 19:48:00,60.3,33.9,29.97,SE,135,1.2,0.0,37,0.00,CLR,,0.00,WeatherDisplay:10.37,2013-09-24 02:48:00,
2013-09-23 19:53:00,60.1,34.4,29.98,South,180,2.3,2.3,38,0.00,CLR,,0.00,WeatherDisplay:10.37,2013-09-24 02:53:00,
2013-09-23 19:58:00,60.1,35.0,29.98,South,180,2.3,0.0,39,0.00,CLR,,0.00,WeatherDisplay:10.37,2013-09-24 02:58:00,
2013-09-23 20:03:00,60.1,35.0,29.98,South,180,0.0,0.0,39,0.00,CLR,,0.00,WeatherDisplay:10.37,2013-09-24 03:03:00,
2013-09-23 20:08:00,59.9,34.9,29.98,West,270,1.2,0.0,39,0.00,CLR,,0.00,WeatherDisplay:10.37,2013-09-24 03:08:00,
2013-09-23 20:13:00,59.9,35.5,29.98,SW,225,0.0,0.0,40,0.00,CLR,,0.00,WeatherDisplay:10.37,2013-09-24 03:13:00,
2013-09-23 20:18:00,59.7,35.3,29.98,SW,225,1.2,0.0,40,0.00,CLR,,0.00,WeatherDisplay:10.37,2013-09-24 03:18:00,
2013-09-23 20:23:00,59.5,35.8,29.98,South,180,1.2,0.0,41,0.00,CLR,,0.00,WeatherDisplay:10.37,2013-09-24 03:23:00,
2013-09-23 20:29:00,59.4,36.2,29.98,East,90,1.2,0.0,42,0.00,CLR,,0.00,WeatherDisplay:10.37,2013-09-24 03:29:00,
2013-09-23 20:34:00,59.4,36.8,29.98,East,90,0.0,0.0,43,0.00,CLR,,0.00,WeatherDisplay:10.37,2013-09-24 03:34:00,
2013-09-23 20:39:00,59.4,36.8,29.98,East,90,0.0,0.0,43,0.00,CLR,,0.00,WeatherDisplay:10.37,2013-09-24 03:39:00,
2013-09-23 20:44:00,59.4,37.4,29.98,East,90,0.0,0.0,44,0.00,CLR,,0.00,WeatherDisplay:10.37,2013-09-24 03:44:00,
2013-09-23 20:49:00,59.4,37.4,29.98,South,180,1.2,0.0,44,0.00,CLR,,0.00,WeatherDisplay:10.37,2013-09-24 03:49:00,
2013-09-23 20:54:00,59.2,37.8,29.98,West,270,1.2,0.0,45,0.00,CLR,,0.00,WeatherDisplay:10.37,2013-09-24 03:54:00,
2013-09-23 20:59:00,59.2,37.8,29.98,West,270,1.6,0.0,45,0.00,CLR,,0.00,WeatherDisplay:10.37,2013-09-24 03:59:00,
2013-09-23 21:01:00,59.2,37.8,29.98,NW,315,1.2,1.2,45,0.00,CLR,,0.00,WeatherDisplay:10.37,2013-09-24 04:01:00,
2013-09-23 21:02:00,59.2,37.8,29.98,NW,315,1.2,0.0,45,0.00,CLR,,0.00,WeatherDisplay:10.37,2013-09-24 04:02:00,
2013-09-23 21:07:00,59.2,38.4,29.98,NW,315,1.2,0.0,46,0.00,CLR,,0.00,WeatherDisplay:10.37,2013-09-24 04:07:00,
2013-09-23 21:12:00,59.2,38.4,29.98,NW,315,0.0,0.0,46,0.00,CLR,,0.00,WeatherDisplay:10.37,2013-09-24 04:12:00,
2013-09-23 21:17:00,59.2,38.4,29.97,SW,225,0.0,0.0,46,0.00,CLR,,0.00,WeatherDisplay:10.37,2013-09-24 04:17:00,
2013-09-23 21:22:00,59.0,38.2,29.98,West,270,1.2,0.0,46,0.00,CLR,,0.00,WeatherDisplay:10.37,2013-09-24 04:22:00,
2013-09-23 21:27:00,59.0,38.8,29.98,West,270,0.0,0.0,47,0.00,CLR,,0.00,WeatherDisplay:10.37,2013-09-24 04:27:00,
2013-09-23 21:32:00,59.0,38.8,29.98,West,270,0.0,0.0,47,0.00,CLR,,0.00,WeatherDisplay:10.37,2013-09-24 04:32:00,
2013-09-23 21:37:00,58.8,39.2,29.98,SW,225,1.2,1.2,48,0.00,CLR,,0.00,WeatherDisplay:10.37,2013-09-24 04:37:00,
2013-09-23 21:42:00,58.8,39.7,29.97,SW,225,1.2,0.0,49,0.00,CLR,,0.00,WeatherDisplay:10.37,2013-09-24 04:42:00,
2013-09-23 21:47:00,58.6,39.5,29.97,SW,225,0.0,0.0,49,0.00,CLR,,0.00,WeatherDisplay:10.37,2013-09-24 04:47:00,
2013-09-23 21:52:00,58.5,39.9,29.97,West,270,1.2,0.0,50,0.00,CLR,,0.00,WeatherDisplay:10.37,2013-09-24 04:52:00,
2013-09-23 21:57:00,58.5,39.9,29.97,West,270,0.0,0.0,50,0.00,CLR,,0.00,WeatherDisplay:10.37,2013-09-24 04:57:00,
2013-09-23 22:02:00,58.5,39.9,29.97,West,270,0.0,0.0,50,0.00,CLR,,0.00,WeatherDisplay:10.37,2013-09-24 05:02:00,
2013-09-23 22:07:00,58.3,39.7,29.97,SW,225,0.0,0.0,50,0.00,CLR,,0.00,WeatherDisplay:10.37,2013-09-24 05:07:00,
2013-09-23 22:12:00,58.3,40.2,29.96,SW,225,1.2,1.2,51,0.00,CLR,,0.00,WeatherDisplay:10.37,2013-09-24 05:12:00,
2013-09-23 22:17:00,58.1,40.1,29.97,SW,225,1.2,1.2,51,0.00,CLR,,0.00,WeatherDisplay:10.37,2013-09-24 05:17:00,
2013-09-23 22:22:00,57.9,39.9,29.96,SW,225,1.2,0.0,51,0.00,CLR,,0.00,WeatherDisplay:10.37,2013-09-24 05:22:00,
2013-09-23 22:28:00,57.7,39.7,29.97,SW,225,0.0,0.0,51,0.00,CLR,,0.00,WeatherDisplay:10.37,2013-09-24 05:28:00,
2013-09-23 22:33:00,57.7,39.7,29.96,SW,225,0.0,0.0,51,0.00,CLR,,0.00,WeatherDisplay:10.37,2013-09-24 05:33:00,
2013-09-23 22:38:00,57.6,40.1,29.97,SW,225,0.0,0.0,52,0.00,CLR,,0.00,WeatherDisplay:10.37,2013-09-24 05:38:00,
2013-09-23 22:43:00,57.6,40.1,29.96,SW,225,0.0,0.0,52,0.00,CLR,,0.00,WeatherDisplay:10.37,2013-09-24 05:43:00,
2013-09-23 22:48:00,57.6,40.5,29.96,SW,225,0.0,0.0,53,0.00,CLR,,0.00,WeatherDisplay:10.37,2013-09-24 05:48:00,
2013-09-23 22:53:00,57.2,40.2,29.97,SW,225,1.2,0.0,53,0.00,CLR,,0.00,WeatherDisplay:10.37,2013-09-24 05:53:00,
2013-09-23 22:58:00,57.2,40.2,29.96,SW,225,1.2,0.0,53,0.00,CLR,,0.00,WeatherDisplay:10.37,2013-09-24 05:58:00,
2013-09-23 23:03:00,57.0,40.0,29.96,SW,225,1.2,0.0,53,0.00,CLR,,0.00,WeatherDisplay:10.37,2013-09-24 06:03:00,
2013-09-23 23:08:00,57.0,40.5,29.96,SW,225,1.2,0.0,54,0.00,CLR,,0.00,WeatherDisplay:10.37,2013-09-24 06:08:00,
2013-09-23 23:13:00,57.0,40.5,29.97,SW,225,1.2,0.0,54,0.00,CLR,,0.00,WeatherDisplay:10.37,2013-09-24 06:13:00,
2013-09-23 23:18:00,57.0,41.0,29.96,SW,225,0.0,0.0,55,0.00,CLR,,0.00,WeatherDisplay:10.37,2013-09-24 06:18:00,
2013-09-23 23:23:00,57.0,41.0,29.97,SW,225,0.0,0.0,55,0.00,CLR,,0.00,WeatherDisplay:10.37,2013-09-24 06:23:00,
2013-09-23 23:28:00,57.2,41.2,29.97,SW,225,0.0,0.0,55,0.00,CLR,,0.00,WeatherDisplay:10.37,2013-09-24 06:28:00,
2013-09-23 23:33:00,57.2,41.2,29.96,SW,225,1.2,0.0,55,0.00,CLR,,0.00,WeatherDisplay:10.37,2013-09-24 06:33:00,
2013-09-23 23:38:00,57.0,41.5,29.97,SW,225,0.0,0.0,56,0.00,CLR,,0.00,WeatherDisplay:10.37,2013-09-24 06:38:00,
2013-09-23 23:43:00,57.0,41.5,29.96,SW,225,0.0,0.0,56,0.00,CLR,,0.00,WeatherDisplay:10.37,2013-09-24 06:43:00,
2013-09-23 23:48:00,57.0,41.5,29.96,SW,225,0.0,0.0,56,0.00,CLR,,0.00,WeatherDisplay:10.37,2013-09-24 06:48:00,
2013-09-23 23:53:00,57.0,41.5,29.96,SW,225,0.0,0.0,56,0.00,CLR,,0.00,WeatherDisplay:10.37,2013-09-24 06:53:00,
2013-09-23 23:58:00,56.8,41.3,29.96,SW,225,0.0,0.0,56,0.00,CLR,,0.00,WeatherDisplay:10.37,2013-09-24 06:58:00,